Time;durP1;ratioP1;P1;durP2;ratioP2;P2;SDS_P1;SDS_P2;PMS_P1;PMS_P2;Temp;Humidity;BMP_temperature;BMP_pressure;BME280_temperature;BME280_humidity;BME280_pressure;Samples;Min_cycle;Max_cycle;Signal;HPM_P1;HPM_P2
2022/01/04 00:00:09;;;;;;;27.02;13.75;;;8.70;99.90;;;;;;5004649;28;20085;-87
2022/01/04 00:02:35;;;;;;;24.40;13.70;;;8.70;99.90;;;;;;4983331;28;20051;-86
2022/01/04 00:05:01;;;;;;;24.55;14.73;;;8.70;99.90;;;;;;4997604;28;20356;-87
2022/01/04 00:07:26;;;;;;;26.35;15.07;;;8.70;99.90;;;;;;4985556;28;20382;-86
2022/01/04 00:09:53;;;;;;;22.75;13.73;;;8.60;99.90;;;;;;5003232;28;20684;-87
2022/01/04 00:15:07;;;;;;;26.35;15.45;;;8.40;99.90;;;;;;4998648;28;20309;-87
2022/01/04 00:17:34;;;;;;;24.73;15.82;;;8.30;99.90;;;;;;4986498;28;20575;-85
2022/01/04 00:20:00;;;;;;;27.52;15.75;;;8.20;99.90;;;;;;4983979;28;20055;-86
2022/01/04 00:22:26;;;;;;;28.52;16.60;;;8.20;99.90;;;;;;4978884;28;20039;-85
2022/01/04 00:24:51;;;;;;;32.53;17.58;;;8.20;99.90;;;;;;4996981;28;20047;-86
2022/01/04 00:27:17;;;;;;;31.90;18.15;;;8.20;99.90;;;;;;4997314;28;20058;-85
2022/01/04 00:29:43;;;;;;;27.33;17.52;;;8.20;99.90;;;;;;4998382;28;20139;-86
2022/01/04 00:32:09;;;;;;;28.98;18.60;;;8.10;99.90;;;;;;4997854;28;20426;-87
2022/01/04 00:34:35;;;;;;;32.97;18.90;;;8.20;99.90;;;;;;4994866;28;20110;-86
2022/01/04 00:37:01;;;;;;;31.98;19.08;;;8.20;99.90;;;;;;4974625;28;20616;-86
2022/01/04 00:39:27;;;;;;;33.53;19.65;;;8.10;99.90;;;;;;5002576;28;20649;-87
2022/01/04 00:41:52;;;;;;;30.60;19.73;;;8.20;99.90;;;;;;4965292;28;20524;-85
2022/01/04 00:44:19;;;;;;;31.63;19.80;;;8.10;99.90;;;;;;4977816;28;20055;-88
2022/01/04 00:46:44;;;;;;;33.80;20.50;;;8.10;99.90;;;;;;4975269;28;20704;-85
2022/01/04 00:49:11;;;;;;;30.90;19.48;;;8.10;99.90;;;;;;4997911;28;20059;-85
2022/01/04 00:51:39;;;;;;;32.83;20.42;;;8.00;99.90;;;;;;4988199;28;20062;-88
2022/01/04 00:54:05;;;;;;;34.95;20.52;;;8.00;99.90;;;;;;4974808;28;20056;-87
2022/01/04 00:56:31;;;;;;;35.08;21.35;;;8.00;99.90;;;;;;4999686;28;20517;-86
2022/01/04 00:58:57;;;;;;;33.53;21.27;;;8.00;99.90;;;;;;4987808;28;20054;-85
2022/01/04 01:01:23;;;;;;;35.83;20.95;;;7.90;99.90;;;;;;4999644;28;20072;-88
2022/01/04 01:03:50;;;;;;;37.92;22.15;;;7.90;99.90;;;;;;5005585;28;20047;-86
2022/01/04 01:06:17;;;;;;;34.05;22.88;;;7.90;99.90;;;;;;5005146;28;20364;-86
2022/01/04 01:08:43;;;;;;;35.60;22.67;;;8.00;99.90;;;;;;4984712;28;20832;-85
2022/01/04 01:11:09;;;;;;;39.80;23.05;;;7.90;99.90;;;;;;5005022;28;20071;-87
2022/01/04 01:13:36;;;;;;;35.83;22.80;;;8.00;99.90;;;;;;4979455;28;20505;-86
2022/01/04 01:16:02;;;;;;;39.65;23.77;;;7.90;99.90;;;;;;4974208;28;20217;-86
2022/01/04 01:18:28;;;;;;;38.17;23.92;;;8.00;99.90;;;;;;5003833;28;21556;-86
2022/01/04 01:20:54;;;;;;;35.65;24.20;;;8.00;99.90;;;;;;4965231;28;20044;-86
2022/01/04 01:23:20;;;;;;;40.28;24.52;;;8.00;99.90;;;;;;4988861;28;20051;-86
2022/01/04 01:25:47;;;;;;;38.05;25.23;;;8.00;99.90;;;;;;4987756;28;20043;-87
2022/01/04 01:28:14;;;;;;;36.28;24.45;;;7.90;99.90;;;;;;5007746;28;20048;-86
2022/01/04 01:30:41;;;;;;;42.10;24.50;;;8.00;99.90;;;;;;4998263;28;20519;-87
2022/01/04 01:33:08;;;;;;;37.42;25.10;;;7.90;99.90;;;;;;4989373;28;20448;-85
2022/01/04 01:35:34;;;;;;;37.83;25.17;;;7.90;99.90;;;;;;4990527;28;20118;-86
2022/01/04 01:38:01;;;;;;;40.45;24.85;;;8.00;99.90;;;;;;5005161;28;20122;-85
2022/01/04 01:40:27;;;;;;;44.95;26.13;;;8.00;99.90;;;;;;4987660;28;20765;-86
2022/01/04 01:42:53;;;;;;;40.60;26.00;;;8.00;99.90;;;;;;5010001;28;20158;-86
2022/01/04 01:45:21;;;;;;;40.22;25.40;;;8.00;99.90;;;;;;4999219;28;20411;-87
2022/01/04 01:47:47;;;;;;;41.40;26.35;;;8.00;99.90;;;;;;4976380;28;20447;-86
2022/01/04 01:50:14;;;;;;;41.63;26.73;;;8.10;99.90;;;;;;4987708;28;20561;-87
2022/01/04 01:52:41;;;;;;;41.33;26.35;;;8.10;99.90;;;;;;4989830;28;20492;-87
2022/01/04 01:55:09;;;;;;;38.78;26.20;;;8.10;99.90;;;;;;4988512;28;20493;-86
2022/01/04 01:57:35;;;;;;;39.85;27.20;;;8.00;99.90;;;;;;5004685;28;20134;-86
2022/01/04 02:00:03;;;;;;;39.50;26.27;;;8.00;99.90;;;;;;5005820;28;20412;-87
2022/01/04 02:02:29;;;;;;;39.95;25.48;;;8.00;99.90;;;;;;4992902;28;20346;-86
2022/01/04 02:04:57;;;;;;;42.85;26.55;;;7.90;99.90;;;;;;5002130;28;20075;-86
2022/01/04 02:07:23;;;;;;;43.22;26.40;;;7.90;99.90;;;;;;4975086;28;20043;-87
2022/01/04 02:10:02;;;;;;;37.35;26.00;;;7.90;99.90;;;;;;4985465;28;20845;-87
2022/01/04 02:12:28;;;;;;;39.45;26.27;;;7.90;99.90;;;;;;4978351;28;20051;-87
2022/01/04 02:14:55;;;;;;;43.08;26.13;;;7.90;99.90;;;;;;5008049;28;20154;-86
2022/01/04 02:17:21;;;;;;;45.45;26.50;;;7.80;99.90;;;;;;5001308;28;20679;-87
2022/01/04 02:19:46;;;;;;;41.13;25.48;;;7.80;99.90;;;;;;4983902;28;20051;-86
2022/01/04 02:22:12;;;;;;;43.47;25.67;;;7.80;99.90;;;;;;4975462;28;20513;-87
2022/01/04 02:24:38;;;;;;;42.78;26.02;;;7.70;99.90;;;;;;4989374;28;20040;-88
2022/01/04 02:27:07;;;;;;;42.17;25.85;;;7.70;99.90;;;;;;5002625;28;20451;-86
2022/01/04 02:29:33;;;;;;;39.05;26.17;;;7.70;99.90;;;;;;4997651;28;20051;-86
2022/01/04 02:31:59;;;;;;;44.20;27.40;;;7.70;99.90;;;;;;4984975;28;20459;-88
2022/01/04 02:34:24;;;;;;;44.10;27.13;;;7.70;99.90;;;;;;4973126;28;20051;-86
2022/01/04 02:36:50;;;;;;;42.60;27.52;;;7.70;99.90;;;;;;5001572;28;20044;-86
2022/01/04 02:39:16;;;;;;;40.42;26.55;;;7.70;99.90;;;;;;5004486;28;20047;-87
2022/01/04 02:41:42;;;;;;;41.25;27.85;;;7.70;99.90;;;;;;5007428;28;20051;-87
2022/01/04 02:44:07;;;;;;;43.30;27.25;;;7.70;99.90;;;;;;5020079;28;20039;-87
2022/01/04 02:46:33;;;;;;;48.13;27.38;;;7.70;99.90;;;;;;4982149;28;20048;-87
2022/01/04 02:48:59;;;;;;;49.58;28.85;;;7.70;99.90;;;;;;5004029;28;20988;-86
2022/01/04 02:51:27;;;;;;;46.38;28.95;;;7.70;99.90;;;;;;5003164;28;20078;-86
2022/01/04 02:53:53;;;;;;;48.17;27.75;;;7.80;99.90;;;;;;4984027;28;20048;-87
2022/01/04 02:56:19;;;;;;;43.40;28.33;;;7.80;99.90;;;;;;4979762;28;20051;-85
2022/01/04 02:58:45;;;;;;;43.33;27.45;;;7.70;99.90;;;;;;4999768;28;20043;-86
2022/01/04 03:01:11;;;;;;;43.88;28.20;;;7.80;99.90;;;;;;4976519;28;20044;-85
2022/01/04 03:03:37;;;;;;;47.08;28.08;;;7.80;99.90;;;;;;4977390;28;20612;-87
2022/01/04 03:06:03;;;;;;;43.88;29.20;;;7.90;99.90;;;;;;4972736;28;20322;-86
2022/01/04 03:08:29;;;;;;;44.63;30.02;;;8.00;99.90;;;;;;4960457;28;20524;-87
2022/01/04 03:10:54;;;;;;;43.25;29.77;;;8.00;99.90;;;;;;4985289;28;20044;-86
2022/01/04 03:13:20;;;;;;;47.97;29.30;;;8.10;99.90;;;;;;4992749;28;20055;-86
2022/01/04 03:15:46;;;;;;;45.05;29.05;;;8.10;99.90;;;;;;5004028;28;20948;-85
2022/01/04 03:18:13;;;;;;;44.92;28.98;;;8.20;99.90;;;;;;5003130;28;21043;-86
2022/01/04 03:20:39;;;;;;;45.40;29.48;;;8.20;99.90;;;;;;4979666;28;20497;-87
2022/01/04 03:23:10;;;;;;;46.92;29.48;;;8.30;99.90;;;;;;4980120;28;20117;-86
2022/01/04 03:25:37;;;;;;;50.25;29.10;;;8.30;99.90;;;;;;4987908;28;20457;-87
2022/01/04 03:28:03;;;;;;;47.85;29.55;;;8.30;99.90;;;;;;5005681;28;20052;-87
2022/01/04 03:30:29;;;;;;;43.47;28.27;;;8.30;99.90;;;;;;5000651;28;20048;-86
2022/01/04 03:32:55;;;;;;;42.38;27.13;;;8.30;99.90;;;;;;4980957;28;20372;-87
2022/01/04 03:35:25;;;;;;;39.30;28.02;;;8.30;99.90;;;;;;5000824;28;20494;-87
2022/01/04 03:37:51;;;;;;;39.55;27.35;;;8.30;99.90;;;;;;5005271;28;20738;-86
2022/01/04 03:40:17;;;;;;;39.05;27.08;;;8.20;99.90;;;;;;4990157;28;20101;-85
2022/01/04 03:42:43;;;;;;;41.70;26.75;;;8.20;99.90;;;;;;4986674;28;20154;-86
2022/01/04 03:45:10;;;;;;;42.33;27.25;;;8.20;99.90;;;;;;4970893;28;20076;-87
2022/01/04 03:47:37;;;;;;;43.70;28.63;;;8.30;99.90;;;;;;4971494;28;20063;-88
2022/01/04 03:50:03;;;;;;;38.42;26.42;;;8.20;99.90;;;;;;4981915;28;20048;-87
2022/01/04 03:52:29;;;;;;;44.90;27.63;;;8.20;99.90;;;;;;5001376;28;20051;-86
2022/01/04 03:54:55;;;;;;;42.92;27.95;;;8.30;99.90;;;;;;4985205;28;20085;-86
2022/01/04 03:57:21;;;;;;;43.85;27.95;;;8.30;99.90;;;;;;4998205;28;20757;-86
2022/01/04 03:59:47;;;;;;;41.85;26.38;;;8.20;99.90;;;;;;5003557;28;20052;-86
2022/01/04 04:02:16;;;;;;;43.75;26.88;;;8.10;99.90;;;;;;4998668;28;20048;-86
2022/01/04 04:04:42;;;;;;;45.55;27.50;;;8.20;99.90;;;;;;5003466;28;20616;-86
2022/01/04 04:07:09;;;;;;;40.95;28.25;;;8.20;99.90;;;;;;5000255;28;21221;-85
2022/01/04 04:09:36;;;;;;;45.83;28.48;;;8.20;99.90;;;;;;4984423;28;20483;-86
2022/01/04 04:12:03;;;;;;;40.72;27.88;;;8.30;99.90;;;;;;5003373;28;20481;-86
2022/01/04 04:14:29;;;;;;;48.33;28.27;;;8.30;99.90;;;;;;4984102;28;20043;-86
2022/01/04 04:16:55;;;;;;;44.25;28.02;;;8.30;99.90;;;;;;4996090;28;20316;-86
2022/01/04 04:19:21;;;;;;;42.15;27.15;;;8.30;99.90;;;;;;4995058;28;20048;-86
2022/01/04 04:21:47;;;;;;;38.40;26.10;;;8.20;99.90;;;;;;4983551;28;20435;-86
2022/01/04 04:24:12;;;;;;;41.47;29.17;;;8.20;99.90;;;;;;5001206;28;20048;-86
2022/01/04 04:26:38;;;;;;;41.30;27.33;;;8.30;99.90;;;;;;4965679;28;20366;-85
2022/01/04 04:29:04;;;;;;;38.42;27.67;;;8.30;99.90;;;;;;4983885;28;20048;-86
2022/01/04 04:31:29;;;;;;;41.20;27.90;;;8.30;99.90;;;;;;5002468;28;20047;-87
2022/01/04 04:33:55;;;;;;;44.25;28.52;;;8.30;99.90;;;;;;4987474;28;20054;-87
2022/01/04 04:36:21;;;;;;;42.47;27.65;;;8.30;99.90;;;;;;4978346;28;20043;-86
2022/01/04 04:38:47;;;;;;;40.42;27.52;;;8.30;99.90;;;;;;5006869;28;20231;-86
2022/01/04 04:41:12;;;;;;;39.50;26.10;;;8.30;99.90;;;;;;4995819;28;20943;-86
2022/01/04 04:43:38;;;;;;;42.05;27.80;;;8.30;99.90;;;;;;5005929;28;20308;-86
2022/01/04 04:46:04;;;;;;;41.08;28.42;;;8.40;99.90;;;;;;4989859;28;20892;-88
2022/01/04 04:48:30;;;;;;;40.08;26.92;;;8.40;99.90;;;;;;4996142;28;20055;-86
2022/01/04 04:50:56;;;;;;;44.00;27.23;;;8.40;99.90;;;;;;5000138;28;20243;-87
2022/01/04 04:53:22;;;;;;;40.53;27.83;;;8.40;99.90;;;;;;5023638;28;20422;-86
2022/01/04 04:55:48;;;;;;;40.22;27.20;;;8.30;99.90;;;;;;4986596;28;20450;-86
2022/01/04 04:58:14;;;;;;;37.80;27.85;;;8.30;99.90;;;;;;4982954;28;20048;-86
2022/01/04 05:00:39;;;;;;;43.15;28.08;;;8.40;99.90;;;;;;4997299;28;20043;-84
2022/01/04 05:03:05;;;;;;;41.88;27.90;;;8.50;99.90;;;;;;5001503;28;20063;-88
2022/01/04 05:05:31;;;;;;;39.47;27.70;;;8.50;99.90;;;;;;5008123;28;20980;-88
2022/01/04 05:07:57;;;;;;;43.10;29.33;;;8.50;99.90;;;;;;4987118;28;20044;-88
2022/01/04 05:10:23;;;;;;;44.28;28.92;;;8.40;99.90;;;;;;4968696;28;20051;-88
2022/01/04 05:12:48;;;;;;;49.42;29.90;;;8.40;99.90;;;;;;5011529;28;20082;-91
2022/01/04 05:15:14;;;;;;;50.67;30.17;;;8.40;99.90;;;;;;5003721;28;20474;-91
2022/01/04 05:17:40;;;;;;;51.40;31.15;;;8.30;99.90;;;;;;4994491;28;20035;-90
2022/01/04 05:20:10;;;;;;;48.67;30.50;;;8.30;99.90;;;;;;4969686;28;20762;-89
2022/01/04 05:22:35;;;;;;;48.83;29.73;;;8.30;99.90;;;;;;5017323;28;20040;-90
2022/01/04 05:25:01;;;;;;;49.05;30.80;;;8.30;99.90;;;;;;4996840;28;20055;-91
2022/01/04 05:27:27;;;;;;;50.33;30.75;;;8.30;99.90;;;;;;4984576;28;20422;-90
2022/01/04 05:29:53;;;;;;;48.88;30.42;;;8.30;99.90;;;;;;4969083;28;20788;-90
2022/01/04 05:32:18;;;;;;;49.70;30.98;;;8.30;99.90;;;;;;5010286;28;20063;-89
2022/01/04 05:34:44;;;;;;;49.28;30.35;;;8.30;99.90;;;;;;4979454;28;20106;-89
2022/01/04 05:37:10;;;;;;;48.65;30.63;;;8.30;99.90;;;;;;4995811;28;20245;-88
2022/01/04 05:39:39;;;;;;;44.42;29.85;;;8.30;99.90;;;;;;4993905;28;20579;-90
2022/01/04 05:42:08;;;;;;;44.17;29.90;;;8.30;99.90;;;;;;4977264;28;20043;-86
2022/01/04 05:44:36;;;;;;;46.78;30.70;;;8.30;99.90;;;;;;4979180;28;20224;-89
2022/01/04 05:47:04;;;;;;;48.58;31.17;;;8.30;99.90;;;;;;5010628;28;20063;-88
2022/01/04 05:49:30;;;;;;;48.40;31.08;;;8.30;99.90;;;;;;5003903;28;20535;-88
2022/01/04 05:51:56;;;;;;;47.67;31.15;;;8.30;99.90;;;;;;4990403;28;20075;-88
2022/01/04 05:54:21;;;;;;;44.97;29.77;;;8.20;99.90;;;;;;4991309;28;20047;-89
2022/01/04 05:56:49;;;;;;;45.70;30.63;;;8.30;99.90;;;;;;4984467;28;20097;-87
2022/01/04 05:59:15;;;;;;;45.45;30.88;;;8.30;99.90;;;;;;5011797;28;20046;-89
2022/01/04 06:01:50;;;;;;;49.55;32.15;;;8.30;99.90;;;;;;4981410;28;20372;-88
2022/01/04 06:04:16;;;;;;;44.67;29.83;;;8.30;99.90;;;;;;5013973;28;20567;-91
2022/01/04 06:06:46;;;;;;;47.22;30.17;;;8.30;99.90;;;;;;4987329;28;20853;-89
2022/01/04 06:09:20;;;;;;;47.88;30.80;;;8.30;99.90;;;;;;4996261;28;20043;-88
2022/01/04 06:17:03;;;;;;;46.55;29.38;;;8.20;99.90;;;;;;5017300;28;20070;-90
2022/01/04 06:19:29;;;;;;;43.33;30.40;;;8.20;99.90;;;;;;4993267;28;20051;-87
2022/01/04 06:21:54;;;;;;;44.88;30.25;;;8.20;99.90;;;;;;4973582;28;20061;-89
2022/01/04 06:24:20;;;;;;;46.90;29.77;;;8.20;99.90;;;;;;4993549;27;20071;-88
2022/01/04 06:26:49;;;;;;;44.80;29.65;;;8.20;99.90;;;;;;4991686;28;20054;-87
2022/01/04 06:29:15;;;;;;;46.47;29.98;;;8.20;99.90;;;;;;4981193;28;20058;-89
2022/01/04 06:31:42;;;;;;;45.88;29.98;;;8.20;99.90;;;;;;4996797;28;20058;-90
2022/01/04 06:34:07;;;;;;;46.60;30.60;;;8.20;99.90;;;;;;4996392;28;20100;-89
2022/01/04 06:36:36;;;;;;;47.70;30.60;;;8.30;99.90;;;;;;4960220;28;20097;-87
2022/01/04 06:39:03;;;;;;;47.40;31.33;;;8.30;99.90;;;;;;4997164;28;20051;-89
2022/01/04 06:41:29;;;;;;;50.50;31.88;;;8.30;99.90;;;;;;5008624;28;20147;-90
2022/01/04 06:43:54;;;;;;;48.47;32.33;;;8.30;99.90;;;;;;4993471;28;20227;-89
2022/01/04 06:46:28;;;;;;;44.15;31.20;;;8.20;99.90;;;;;;5005784;28;20138;-91
2022/01/04 06:48:54;;;;;;;43.92;30.88;;;8.20;99.90;;;;;;5013592;28;20051;-89
2022/01/04 06:51:19;;;;;;;48.60;32.78;;;8.20;99.90;;;;;;4977613;28;20039;-89
2022/01/04 06:53:45;;;;;;;46.00;31.77;;;8.20;99.90;;;;;;4968112;28;20404;-88
2022/01/04 06:56:13;;;;;;;43.83;30.60;;;8.20;99.90;;;;;;4994137;28;20043;-88
2022/01/04 06:58:39;;;;;;;49.03;32.33;;;8.20;99.90;;;;;;4979107;28;20048;-89
2022/01/04 07:01:05;;;;;;;46.42;30.70;;;8.20;99.90;;;;;;4970614;28;20074;-88
2022/01/04 07:03:31;;;;;;;43.28;29.65;;;8.20;99.90;;;;;;4983708;28;20641;-89
2022/01/04 07:05:57;;;;;;;45.72;30.70;;;8.20;99.90;;;;;;5013048;28;20043;-91
2022/01/04 07:08:23;;;;;;;46.05;30.85;;;8.20;99.90;;;;;;5001960;28;20070;-90
2022/01/04 07:10:49;;;;;;;46.72;31.17;;;8.20;99.90;;;;;;4988409;28;20040;-87
2022/01/04 07:13:18;;;;;;;45.97;30.13;;;8.20;99.90;;;;;;5014382;28;20100;-88
2022/01/04 07:15:45;;;;;;;49.33;30.98;;;8.20;99.90;;;;;;4978941;28;20048;-90
2022/01/04 07:18:11;;;;;;;46.08;30.42;;;8.20;99.90;;;;;;4990422;28;20494;-90
2022/01/04 07:20:37;;;;;;;44.80;30.30;;;8.20;99.90;;;;;;4964408;28;20792;-88
2022/01/04 07:23:03;;;;;;;43.35;29.08;;;8.20;99.90;;;;;;4973852;28;20082;-88
2022/01/04 07:25:29;;;;;;;43.55;29.17;;;8.20;99.90;;;;;;4984109;28;20974;-87
2022/01/04 07:27:54;;;;;;;46.67;29.88;;;8.10;99.90;;;;;;5015548;28;20043;-88
2022/01/04 07:30:23;;;;;;;46.90;30.38;;;8.20;99.90;;;;;;4987787;28;20371;-89
2022/01/04 07:32:48;;;;;;;46.83;30.63;;;8.20;99.90;;;;;;4983462;28;20039;-88
2022/01/04 07:35:14;;;;;;;51.13;30.58;;;8.20;99.90;;;;;;4963225;28;20863;-88
2022/01/04 07:37:40;;;;;;;43.55;29.90;;;8.30;99.90;;;;;;4975237;28;20053;-88
2022/01/04 07:40:09;;;;;;;44.20;31.05;;;8.20;99.90;;;;;;4983675;28;20488;-84
2022/01/04 07:42:38;;;;;;;46.85;29.90;;;8.20;99.90;;;;;;5004963;28;20881;-87
2022/01/04 07:45:04;;;;;;;45.22;29.83;;;8.20;99.90;;;;;;4950580;28;20079;-88
2022/01/04 07:47:30;;;;;;;48.03;30.50;;;8.20;99.90;;;;;;5009285;28;20052;-88
2022/01/04 07:49:56;;;;;;;45.25;30.50;;;8.20;99.90;;;;;;5010687;28;20132;-87
2022/01/04 07:52:22;;;;;;;50.55;31.95;;;8.30;99.90;;;;;;5006167;28;20051;-86
2022/01/04 07:54:48;;;;;;;51.38;31.67;;;8.20;99.90;;;;;;4974390;28;20044;-88
2022/01/04 07:57:14;;;;;;;49.70;31.08;;;8.30;99.90;;;;;;5005833;28;21122;-88
2022/01/04 07:59:39;;;;;;;48.15;31.48;;;8.20;99.90;;;;;;4974935;28;20294;-88
2022/01/04 08:02:05;;;;;;;44.05;32.10;;;8.20;99.90;;;;;;4974951;28;20039;-88
2022/01/04 08:04:34;;;;;;;46.88;31.92;;;8.20;99.90;;;;;;5010084;28;20082;-88
2022/01/04 08:06:59;;;;;;;50.10;32.90;;;8.30;99.90;;;;;;5007920;28;20100;-89
2022/01/04 08:09:25;;;;;;;47.97;33.05;;;8.30;99.90;;;;;;4986248;28;20078;-86
2022/01/04 08:11:51;;;;;;;49.80;31.98;;;8.30;99.90;;;;;;5004306;28;20377;-88
2022/01/04 08:14:17;;;;;;;47.90;31.80;;;8.30;99.90;;;;;;4984149;28;20144;-90
2022/01/04 08:16:43;;;;;;;45.67;30.65;;;8.30;99.90;;;;;;4981352;28;20044;-89
2022/01/04 08:19:09;;;;;;;45.83;31.00;;;8.20;99.90;;;;;;4989812;28;20459;-90
2022/01/04 08:21:35;;;;;;;47.55;30.98;;;8.20;99.90;;;;;;4993595;28;20576;-87
2022/01/04 08:24:01;;;;;;;47.85;31.75;;;8.20;99.90;;;;;;5006615;28;20633;-88
2022/01/04 08:26:28;;;;;;;43.35;30.17;;;8.20;99.90;;;;;;4997869;28;20118;-88
2022/01/04 08:28:57;;;;;;;47.47;31.52;;;8.20;99.90;;;;;;5009740;28;20520;-88
2022/01/04 08:31:23;;;;;;;47.70;31.58;;;8.20;99.90;;;;;;5008189;28;20085;-85
2022/01/04 08:33:49;;;;;;;48.67;32.05;;;8.20;99.90;;;;;;5014866;28;20240;-89
2022/01/04 08:36:15;;;;;;;48.17;31.63;;;8.10;99.90;;;;;;4981484;28;20288;-89
2022/01/04 08:38:43;;;;;;;47.95;32.55;;;8.10;99.90;;;;;;5014725;28;20628;-87
2022/01/04 08:41:09;;;;;;;48.95;32.10;;;8.10;99.90;;;;;;4995816;28;20615;-88
2022/01/04 08:43:37;;;;;;;50.67;32.40;;;8.20;99.90;;;;;;4982498;28;20051;-87
2022/01/04 08:46:03;;;;;;;48.00;32.60;;;8.20;99.90;;;;;;4982645;28;20044;-90
2022/01/04 08:48:29;;;;;;;52.70;33.30;;;8.20;99.90;;;;;;4981355;28;20055;-90
2022/01/04 08:50:57;;;;;;;49.08;33.33;;;8.20;99.90;;;;;;4981116;28;20048;-86
2022/01/04 08:53:23;;;;;;;48.20;33.28;;;8.30;99.90;;;;;;4992818;28;20538;-89
2022/01/04 08:55:49;;;;;;;48.00;32.53;;;8.30;99.90;;;;;;4992184;28;20396;-89
2022/01/04 08:58:14;;;;;;;42.67;31.38;;;8.30;99.90;;;;;;4992766;28;20040;-87
2022/01/04 09:00:40;;;;;;;49.47;32.08;;;8.30;99.90;;;;;;4981227;28;20169;-89
2022/01/04 09:03:06;;;;;;;44.58;31.95;;;8.30;99.90;;;;;;4996539;28;20074;-88
2022/01/04 09:05:32;;;;;;;45.35;31.48;;;8.30;99.90;;;;;;4994132;28;20894;-86
2022/01/04 09:07:57;;;;;;;46.95;31.75;;;8.40;99.90;;;;;;4982936;28;20433;-87
2022/01/04 09:10:23;;;;;;;45.90;31.88;;;8.40;99.90;;;;;;4976939;28;20040;-87
2022/01/04 09:13:09;;;;;;;45.45;32.00;;;8.50;99.90;;;;;;4988145;28;20043;-89
2022/01/04 09:20:51;;;;;;;49.85;31.95;;;8.50;99.90;;;;;;5001346;28;20047;-85
2022/01/04 09:23:20;;;;;;;48.42;32.90;;;8.60;99.90;;;;;;5003824;28;20572;-84
2022/01/04 09:25:47;;;;;;;44.15;32.70;;;8.50;99.90;;;;;;5004007;28;20459;-85
2022/01/04 09:28:14;;;;;;;43.25;32.13;;;8.60;99.90;;;;;;4979116;28;20408;-84
2022/01/04 09:30:40;;;;;;;47.75;31.58;;;8.60;99.90;;;;;;5004500;28;20385;-84
2022/01/04 09:33:07;;;;;;;45.88;31.65;;;8.60;99.90;;;;;;5025577;28;20047;-87
2022/01/04 09:35:35;;;;;;;45.92;31.10;;;8.70;99.90;;;;;;5020185;28;20059;-88
2022/01/04 09:38:02;;;;;;;47.33;33.58;;;8.60;99.90;;;;;;5010417;28;20051;-87
2022/01/04 09:40:28;;;;;;;45.20;31.70;;;8.70;99.90;;;;;;4990235;28;20052;-87
2022/01/04 09:42:54;;;;;;;46.92;32.63;;;8.70;99.90;;;;;;5002542;28;20055;-89
2022/01/04 09:45:20;;;;;;;47.90;32.28;;;8.60;99.90;;;;;;5010587;28;20475;-85
2022/01/04 09:47:46;;;;;;;47.20;31.60;;;8.60;99.90;;;;;;4994827;28;20758;-86
2022/01/04 09:50:12;;;;;;;47.83;32.28;;;8.60;99.90;;;;;;4992710;28;20748;-90
2022/01/04 09:52:44;;;;;;;49.58;32.78;;;8.60;99.90;;;;;;4997180;28;20053;-89
2022/01/04 09:55:14;;;;;;;46.30;30.98;;;8.50;99.90;;;;;;4994409;28;20052;-93
2022/01/04 09:57:47;;;;;;;45.85;30.58;;;8.40;99.90;;;;;;4998958;28;20806;-88
2022/01/04 10:00:15;;;;;;;45.60;29.92;;;8.40;99.90;;;;;;4979028;28;20503;-88
2022/01/04 10:02:51;;;;;;;45.13;29.70;;;8.40;99.90;;;;;;4989072;28;20286;-87
2022/01/04 10:05:29;;;;;;;50.22;30.02;;;8.40;99.90;;;;;;5012456;28;20093;-88
2022/01/04 10:08:05;;;;;;;42.47;29.80;;;8.50;99.90;;;;;;4999670;28;20517;-89
2022/01/04 10:10:32;;;;;;;48.78;31.13;;;8.50;99.90;;;;;;5000889;28;20055;-92
2022/01/04 10:13:04;;;;;;;49.13;31.58;;;8.50;99.90;;;;;;5008069;28;20463;-94
2022/01/04 10:15:48;;;;;;;17.75;11.85;;;8.40;99.90;;;;;;5020102;28;20791;-92
2022/01/04 10:18:13;;;;;;;12.32;8.07;;;8.20;99.90;;;;;;5020093;28;20051;-91
2022/01/04 10:20:44;;;;;;;9.27;5.30;;;8.00;99.90;;;;;;5010031;28;20044;-94
2022/01/04 10:23:34;;;;;;;8.88;4.20;;;7.90;99.90;;;;;;5004582;28;20408;-92
2022/01/04 10:27:10;;;;;;;6.68;3.58;;;7.80;99.90;;;;;;4982908;28;20085;-93
2022/01/04 10:29:29;;;;;;;7.93;3.45;;;7.70;99.90;;;;;;5009976;28;20055;-92
2022/01/04 10:32:11;;;;;;;7.72;3.53;;;7.60;99.90;;;;;;5014936;28;20051;-94
2022/01/04 10:35:09;;;;;;;9.57;3.92;;;7.60;99.90;;;;;;5014616;28;20134;-94
2022/01/04 10:37:40;;;;;;;8.82;3.45;;;7.60;99.90;;;;;;4995378;28;20059;-95
2022/01/04 10:40:12;;;;;;;8.15;3.60;;;7.60;99.90;;;;;;5008860;28;20043;-93
2022/01/04 10:43:25;;;;;;;7.57;3.38;;;7.70;99.90;;;;;;5009284;28;20802;-95
2022/01/04 10:45:56;;;;;;;7.22;3.00;;;7.60;99.90;;;;;;5010887;28;20289;-94
2022/01/04 10:48:39;;;;;;;9.02;3.78;;;7.60;99.90;;;;;;5013258;28;20347;-93
2022/01/04 10:51:31;;;;;;;8.48;3.78;;;7.70;99.90;;;;;;5000912;28;20377;-96
2022/01/04 10:54:24;;;;;;;9.52;4.30;;;7.60;99.90;;;;;;4972003;28;20137;-96
2022/01/04 10:57:06;;;;;;;10.20;4.93;;;7.70;99.90;;;;;;5009355;28;20648;-89
2022/01/04 10:59:32;;;;;;;10.48;5.80;;;7.70;99.90;;;;;;5011794;28;20080;-93
2022/01/04 11:02:00;;;;;;;11.77;6.30;;;7.70;99.90;;;;;;4988424;28;20500;-94
2022/01/04 11:04:26;;;;;;;14.55;6.88;;;7.80;99.90;;;;;;4967361;28;20036;-91
2022/01/04 11:07:01;;;;;;;13.73;6.72;;;7.80;99.90;;;;;;4957795;28;20059;-92
2022/01/04 11:09:29;;;;;;;13.68;7.13;;;7.80;99.90;;;;;;4984755;28;20488;-91
2022/01/04 11:12:00;;;;;;;13.48;6.80;;;7.80;99.90;;;;;;4987221;28;20831;-92
2022/01/04 11:14:26;;;;;;;12.65;6.80;;;7.80;99.90;;;;;;4988856;28;20738;-91
2022/01/04 11:16:52;;;;;;;13.65;7.60;;;7.80;99.90;;;;;;4972477;28;20036;-91
2022/01/04 11:19:21;;;;;;;14.27;8.25;;;7.80;99.90;;;;;;4984963;28;20044;-91
2022/01/04 11:21:48;;;;;;;13.20;8.13;;;7.80;99.90;;;;;;4986063;28;20044;-92
2022/01/04 11:24:23;;;;;;;15.95;8.82;;;7.90;99.90;;;;;;4969656;28;20059;-91
2022/01/04 11:26:49;;;;;;;15.68;8.25;;;7.90;99.90;;;;;;4972522;28;20105;-91
2022/01/04 11:29:23;;;;;;;15.63;8.15;;;8.00;99.90;;;;;;4974212;28;20044;-92
2022/01/04 11:32:02;;;;;;;15.82;8.82;;;8.00;99.90;;;;;;4974414;28;20040;-91
2022/01/04 11:35:06;;;;;;;11.38;5.00;;;8.00;99.90;;;;;;4970545;28;20612;-95
2022/01/04 11:37:45;;;;;;;;;;;;;;;;;;;;;
2022/01/04 11:40:23;;;;;;;8.02;2.67;;;7.80;99.90;;;;;;4972552;28;20374;-92
2022/01/04 11:42:48;;;;;;;8.13;2.67;;;7.80;99.90;;;;;;4995411;28;20208;-91
2022/01/04 11:45:16;;;;;;;7.60;2.42;;;7.80;99.90;;;;;;4969155;28;20203;-90
2022/01/04 11:47:48;;;;;;;8.27;2.80;;;7.70;99.90;;;;;;4986316;28;20044;-89
2022/01/04 11:50:16;;;;;;;7.07;2.00;;;7.70;99.90;;;;;;4958225;28;20557;-89
2022/01/04 11:52:59;;;;;;;6.25;1.88;;;7.50;99.90;;;;;;4998090;28;20055;-89
2022/01/04 11:55:31;;;;;;;7.53;1.73;;;7.60;99.90;;;;;;4969894;28;20397;-89
2022/01/04 11:58:13;;;;;;;7.20;1.70;;;7.60;99.90;;;;;;4979269;28;20063;-88
2022/01/04 12:00:43;;;;;;;5.22;1.60;;;7.70;99.90;;;;;;4980599;28;20151;-91
2022/01/04 12:03:13;;;;;;;6.43;1.27;;;7.50;99.90;;;;;;4974067;28;20375;-91
2022/01/04 12:05:57;;;;;;;8.38;1.48;;;7.50;99.90;;;;;;4978448;28;20044;-89
2022/01/04 12:08:41;;;;;;;6.13;1.33;;;7.50;99.90;;;;;;4977952;28;20571;-89
2022/01/04 12:11:25;;;;;;;5.75;1.42;;;7.50;99.90;;;;;;4982786;28;20048;-89
2022/01/04 12:14:00;;;;;;;8.77;1.55;;;7.60;99.90;;;;;;4987281;28;20040;-89
2022/01/04 12:16:33;;;;;;;8.18;1.63;;;7.60;99.90;;;;;;4984708;28;20111;-88
2022/01/04 12:19:12;;;;;;;6.85;1.58;;;7.60;99.90;;;;;;4979868;28;20575;-91
2022/01/04 12:21:43;;;;;;;6.65;1.60;;;7.40;99.90;;;;;;4987360;28;20243;-93
2022/01/04 12:24:12;;;;;;;6.78;1.40;;;7.50;99.90;;;;;;4984987;28;20198;-89
2022/01/04 12:26:42;;;;;;;6.47;1.60;;;7.50;99.90;;;;;;4987242;28;20075;-88
2022/01/04 12:29:08;;;;;;;7.43;1.67;;;7.50;99.90;;;;;;4968007;28;20040;-93
2022/01/04 12:31:46;;;;;;;7.75;1.90;;;7.40;99.90;;;;;;4995708;28;20424;-88
2022/01/04 12:34:36;;;;;;;5.28;1.73;;;7.50;99.90;;;;;;4984864;28;20540;-89
2022/01/04 12:37:05;;;;;;;6.30;1.63;;;7.30;99.90;;;;;;4998077;28;20600;-89
2022/01/04 12:39:42;;;;;;;3.25;1.40;;;7.30;99.90;;;;;;4974868;28;20047;-90
2022/01/04 12:42:11;;;;;;;5.10;1.30;;;7.20;99.90;;;;;;4976992;28;20521;-87
2022/01/04 12:44:38;;;;;;;2.17;1.10;;;7.10;99.90;;;;;;4962972;28;20510;-87
2022/01/04 12:47:07;;;;;;;4.13;1.35;;;7.10;99.90;;;;;;4967179;28;20044;-88
2022/01/04 12:49:34;;;;;;;7.03;1.13;;;6.90;99.90;;;;;;4980668;28;20327;-89
2022/01/04 12:52:03;;;;;;;3.97;0.95;;;6.80;99.90;;;;;;4986745;28;20693;-87
2022/01/04 12:54:30;;;;;;;4.15;0.95;;;6.80;99.90;;;;;;4997149;28;20040;-89
2022/01/04 12:57:02;;;;;;;4.80;1.15;;;6.90;99.90;;;;;;5007507;28;20104;-88
2022/01/04 12:59:37;;;;;;;4.05;1.20;;;6.90;99.90;;;;;;4992132;28;20277;-86